Terminal Aerodrome Forecast
Issued by NWS Sioux Falls, SD

Home | Current Version | Previous Version | Text Only | Print | Product List | Glossary On
Versions: 1 2 3 4 5 6 7 8 9 10 11 12 13 14 15 16 17 18 19 20 21 22 23 24 25 26 27 28 29 30 31 32 33 34 35 36 37 38
988
FTUS43 KFSD 271937 AAA
TAFSUX
TAF AMD
KSUX 271937Z 2720/2818 VRB05KT P6SM SCT040 BKN070
     FM280000 12005KT P6SM SCT040 BKN150
     FM280600 12005KT P6SM OVC035
      TEMPO 2806/2810 4SM TSRA BKN030CB
     FM281000 09004KT P6SM OVC022=

USA.gov is the U.S. government's official web portal to all federal, state and local government web resources and services.